sensor_id;sensor_type;location;lat;lon;timestamp;temperature;humidity
7704;DHT22;3894;49.700;10.770;2023-10-09T00:00:05;12.40;99.90
7704;DHT22;3894;49.700;10.770;2023-10-09T00:02:51;12.40;99.90
7704;DHT22;3894;49.700;10.770;2023-10-09T00:05:17;12.50;99.90
7704;DHT22;3894;49.700;10.770;2023-10-09T00:07:53;12.50;99.90
7704;DHT22;3894;49.700;10.770;2023-10-09T00:10:21;12.50;99.90
7704;DHT22;3894;49.700;10.770;2023-10-09T00:12:47;12.60;99.90
7704;DHT22;3894;49.700;10.770;2023-10-09T00:15:14;12.50;99.90
7704;DHT22;3894;49.700;10.770;2023-10-09T00:17:43;12.50;99.90
7704;DHT22;3894;49.700;10.770;2023-10-09T00:20:12;12.40;99.90
7704;DHT22;3894;49.700;10.770;2023-10-09T00:22:45;12.40;99.90
7704;DHT22;3894;49.700;10.770;2023-10-09T00:25:11;12.40;99.90
7704;DHT22;3894;49.700;10.770;2023-10-09T00:27:38;12.40;99.90
7704;DHT22;3894;49.700;10.770;2023-10-09T00:30:10;12.30;99.90
7704;DHT22;3894;49.700;10.770;2023-10-09T00:32:40;12.30;99.90
7704;DHT22;3894;49.700;10.770;2023-10-09T00:35:10;12.30;99.90
7704;DHT22;3894;49.700;10.770;2023-10-09T00:37:59;12.30;99.90
7704;DHT22;3894;49.700;10.770;2023-10-09T00:40:32;12.30;99.90
7704;DHT22;3894;49.700;10.770;2023-10-09T00:42:59;12.30;99.90
7704;DHT22;3894;49.700;10.770;2023-10-09T00:45:31;12.30;99.90
7704;DHT22;3894;49.700;10.770;2023-10-09T00:47:58;12.30;99.90
7704;DHT22;3894;49.700;10.770;2023-10-09T00:50:26;12.30;99.90
7704;DHT22;3894;49.700;10.770;2023-10-09T00:52:54;12.40;99.90
7704;DHT22;3894;49.700;10.770;2023-10-09T00:55:34;12.40;99.90
7704;DHT22;3894;49.700;10.770;2023-10-09T00:58:12;12.40;99.90
7704;DHT22;3894;49.700;10.770;2023-10-09T01:00:39;12.40;99.90
7704;DHT22;3894;49.700;10.770;2023-10-09T01:03:14;12.40;99.90
7704;DHT22;3894;49.700;10.770;2023-10-09T01:05:56;12.40;99.90
7704;DHT22;3894;49.700;10.770;2023-10-09T01:08:26;12.40;99.90
7704;DHT22;3894;49.700;10.770;2023-10-09T01:11:16;12.40;99.90
7704;DHT22;3894;49.700;10.770;2023-10-09T01:13:55;12.40;99.90
7704;DHT22;3894;49.700;10.770;2023-10-09T01:16:36;12.50;99.90
7704;DHT22;3894;49.700;10.770;2023-10-09T01:19:02;12.40;99.90
7704;DHT22;3894;49.700;10.770;2023-10-09T01:21:38;12.40;99.90
7704;DHT22;3894;49.700;10.770;2023-10-09T01:24:05;12.40;99.90
7704;DHT22;3894;49.700;10.770;2023-10-09T01:26:39;12.40;99.90
7704;DHT22;3894;49.700;10.770;2023-10-09T01:29:08;12.40;99.90
7704;DHT22;3894;49.700;10.770;2023-10-09T01:34:30;12.40;99.90
7704;DHT22;3894;49.700;10.770;2023-10-09T01:37:10;12.40;99.90
7704;DHT22;3894;49.700;10.770;2023-10-09T01:39:55;12.40;99.90
7704;DHT22;3894;49.700;10.770;2023-10-09T01:42:24;12.40;99.90
7704;DHT22;3894;49.700;10.770;2023-10-09T01:45:10;12.40;99.90
7704;DHT22;3894;49.700;10.770;2023-10-09T01:47:36;12.40;99.90
7704;DHT22;3894;49.700;10.770;2023-10-09T01:50:04;12.40;99.90
7704;DHT22;3894;49.700;10.770;2023-10-09T01:52:30;12.40;99.90
7704;DHT22;3894;49.700;10.770;2023-10-09T01:54:56;12.40;99.90
7704;DHT22;3894;49.700;10.770;2023-10-09T01:57:29;12.40;99.90
7704;DHT22;3894;49.700;10.770;2023-10-09T01:59:55;12.40;99.90
7704;DHT22;3894;49.700;10.770;2023-10-09T02:02:25;12.40;99.90
7704;DHT22;3894;49.700;10.770;2023-10-09T02:05:04;12.30;99.90
7704;DHT22;3894;49.700;10.770;2023-10-09T02:07:37;12.30;99.90
7704;DHT22;3894;49.700;10.770;2023-10-09T02:10:12;12.20;99.90
7704;DHT22;3894;49.700;10.770;2023-10-09T02:12:51;12.20;99.90
7704;DHT22;3894;49.700;10.770;2023-10-09T02:15:26;12.20;99.90
7704;DHT22;3894;49.700;10.770;2023-10-09T02:18:06;12.20;99.90
7704;DHT22;3894;49.700;10.770;2023-10-09T02:23:31;12.20;99.90
7704;DHT22;3894;49.700;10.770;2023-10-09T02:26:07;12.20;99.90
7704;DHT22;3894;49.700;10.770;2023-10-09T02:28:33;12.20;99.90
7704;DHT22;3894;49.700;10.770;2023-10-09T02:31:10;12.10;99.90
7704;DHT22;3894;49.700;10.770;2023-10-09T02:33:37;12.00;99.90
7704;DHT22;3894;49.700;10.770;2023-10-09T02:36:05;11.90;99.90
7704;DHT22;3894;49.700;10.770;2023-10-09T02:38:34;11.80;99.90
7704;DHT22;3894;49.700;10.770;2023-10-09T02:41:03;11.80;99.90
7704;DHT22;3894;49.700;10.770;2023-10-09T02:43:29;11.80;99.90
7704;DHT22;3894;49.700;10.770;2023-10-09T02:46:06;11.80;99.90
7704;DHT22;3894;49.700;10.770;2023-10-09T02:48:41;11.90;99.90
7704;DHT22;3894;49.700;10.770;2023-10-09T02:51:11;11.90;99.90
7704;DHT22;3894;49.700;10.770;2023-10-09T02:53:47;11.90;99.90
7704;DHT22;3894;49.700;10.770;2023-10-09T02:56:15;12.00;99.90
7704;DHT22;3894;49.700;10.770;2023-10-09T02:58:43;11.90;99.90
7704;DHT22;3894;49.700;10.770;2023-10-09T03:01:12;12.00;99.90
7704;DHT22;3894;49.700;10.770;2023-10-09T03:03:41;11.90;99.90
7704;DHT22;3894;49.700;10.770;2023-10-09T03:06:13;11.90;99.90
7704;DHT22;3894;49.700;10.770;2023-10-09T03:08:39;11.90;99.90
7704;DHT22;3894;49.700;10.770;2023-10-09T03:11:08;12.00;99.90
7704;DHT22;3894;49.700;10.770;2023-10-09T03:13:41;11.90;99.90
7704;DHT22;3894;49.700;10.770;2023-10-09T03:16:08;11.90;99.90
7704;DHT22;3894;49.700;10.770;2023-10-09T03:18:40;11.90;99.90
7704;DHT22;3894;49.700;10.770;2023-10-09T03:21:05;11.90;99.90
7704;DHT22;3894;49.700;10.770;2023-10-09T03:23:31;11.90;99.90
7704;DHT22;3894;49.700;10.770;2023-10-09T03:25:57;11.90;99.90
7704;DHT22;3894;49.700;10.770;2023-10-09T03:28:24;11.80;99.90
7704;DHT22;3894;49.700;10.770;2023-10-09T03:30:49;11.80;99.90
7704;DHT22;3894;49.700;10.770;2023-10-09T03:33:16;11.80;99.90
7704;DHT22;3894;49.700;10.770;2023-10-09T03:35:42;11.80;99.90
7704;DHT22;3894;49.700;10.770;2023-10-09T03:38:08;11.80;99.90
7704;DHT22;3894;49.700;10.770;2023-10-09T03:40:44;11.70;99.90
7704;DHT22;3894;49.700;10.770;2023-10-09T03:43:13;11.70;99.90
7704;DHT22;3894;49.700;10.770;2023-10-09T03:45:39;11.60;99.90
7704;DHT22;3894;49.700;10.770;2023-10-09T03:48:11;11.50;99.90
7704;DHT22;3894;49.700;10.770;2023-10-09T03:50:58;11.50;99.90
7704;DHT22;3894;49.700;10.770;2023-10-09T03:53:38;11.50;99.90
7704;DHT22;3894;49.700;10.770;2023-10-09T03:56:12;11.50;99.90
7704;DHT22;3894;49.700;10.770;2023-10-09T03:58:39;11.50;99.90
7704;DHT22;3894;49.700;10.770;2023-10-09T04:01:12;11.50;99.90
7704;DHT22;3894;49.700;10.770;2023-10-09T04:03:48;11.40;99.90
7704;DHT22;3894;49.700;10.770;2023-10-09T04:06:13;11.30;99.90
7704;DHT22;3894;49.700;10.770;2023-10-09T04:08:43;11.20;99.90
7704;DHT22;3894;49.700;10.770;2023-10-09T04:11:14;11.20;99.90
7704;DHT22;3894;49.700;10.770;2023-10-09T04:13:46;11.20;99.90
7704;DHT22;3894;49.700;10.770;2023-10-09T04:16:12;11.20;99.90
7704;DHT22;3894;49.700;10.770;2023-10-09T04:18:56;11.10;99.90
7704;DHT22;3894;49.700;10.770;2023-10-09T04:21:23;11.10;99.90
7704;DHT22;3894;49.700;10.770;2023-10-09T04:24:05;11.00;99.90
7704;DHT22;3894;49.700;10.770;2023-10-09T04:26:42;10.90;99.90
7704;DHT22;3894;49.700;10.770;2023-10-09T04:29:15;10.90;99.90
7704;DHT22;3894;49.700;10.770;2023-10-09T04:31:52;10.90;99.90
7704;DHT22;3894;49.700;10.770;2023-10-09T04:34:19;10.90;99.90
7704;DHT22;3894;49.700;10.770;2023-10-09T04:36:50;10.70;99.90
7704;DHT22;3894;49.700;10.770;2023-10-09T04:39:17;10.70;99.90
7704;DHT22;3894;49.700;10.770;2023-10-09T04:42:02;10.50;99.90
7704;DHT22;3894;49.700;10.770;2023-10-09T04:44:46;10.60;99.90
7704;DHT22;3894;49.700;10.770;2023-10-09T04:47:31;10.60;99.90
7704;DHT22;3894;49.700;10.770;2023-10-09T04:50:10;10.60;99.90
7704;DHT22;3894;49.700;10.770;2023-10-09T04:52:55;10.60;99.90
7704;DHT22;3894;49.700;10.770;2023-10-09T04:55:20;10.60;99.90
7704;DHT22;3894;49.700;10.770;2023-10-09T04:57:50;10.70;99.90
7704;DHT22;3894;49.700;10.770;2023-10-09T05:00:34;10.60;99.90
7704;DHT22;3894;49.700;10.770;2023-10-09T05:03:02;10.70;99.90
7704;DHT22;3894;49.700;10.770;2023-10-09T05:05:38;10.70;99.90
7704;DHT22;3894;49.700;10.770;2023-10-09T05:08:15;10.80;99.90
7704;DHT22;3894;49.700;10.770;2023-10-09T05:11:02;10.80;99.90
7704;DHT22;3894;49.700;10.770;2023-10-09T05:13:41;10.80;99.90
7704;DHT22;3894;49.700;10.770;2023-10-09T05:16:10;10.90;99.90
7704;DHT22;3894;49.700;10.770;2023-10-09T05:18:56;10.90;99.90
7704;DHT22;3894;49.700;10.770;2023-10-09T05:21:33;10.90;99.90
7704;DHT22;3894;49.700;10.770;2023-10-09T05:24:00;10.90;99.90
7704;DHT22;3894;49.700;10.770;2023-10-09T05:26:39;10.90;99.90
7704;DHT22;3894;49.700;10.770;2023-10-09T05:29:19;10.80;99.90
7704;DHT22;3894;49.700;10.770;2023-10-09T05:31:48;10.70;99.90
7704;DHT22;3894;49.700;10.770;2023-10-09T05:34:33;10.60;99.90
7704;DHT22;3894;49.700;10.770;2023-10-09T05:37:02;10.60;99.90
7704;DHT22;3894;49.700;10.770;2023-10-09T05:39:53;10.60;99.90
7704;DHT22;3894;49.700;10.770;2023-10-09T05:42:29;10.60;99.90
7704;DHT22;3894;49.700;10.770;2023-10-09T05:45:27;10.70;99.90
7704;DHT22;3894;49.700;10.770;2023-10-09T05:48:00;10.70;99.90
7704;DHT22;3894;49.700;10.770;2023-10-09T05:50:30;10.70;99.90
7704;DHT22;3894;49.700;10.770;2023-10-09T05:52:58;10.80;99.90
7704;DHT22;3894;49.700;10.770;2023-10-09T05:55:28;10.80;99.90
7704;DHT22;3894;49.700;10.770;2023-10-09T05:58:13;10.80;99.90
7704;DHT22;3894;49.700;10.770;2023-10-09T06:00:44;10.80;99.90
7704;DHT22;3894;49.700;10.770;2023-10-09T06:03:29;10.80;99.90
7704;DHT22;3894;49.700;10.770;2023-10-09T06:06:21;10.90;99.90
7704;DHT22;3894;49.700;10.770;2023-10-09T06:09:01;11.00;99.90
7704;DHT22;3894;49.700;10.770;2023-10-09T06:11:39;11.00;99.90
7704;DHT22;3894;49.700;10.770;2023-10-09T06:14:06;11.10;99.90
7704;DHT22;3894;49.700;10.770;2023-10-09T06:16:41;11.20;99.90
7704;DHT22;3894;49.700;10.770;2023-10-09T06:19:07;11.20;99.90
7704;DHT22;3894;49.700;10.770;2023-10-09T06:21:34;11.30;99.90
7704;DHT22;3894;49.700;10.770;2023-10-09T06:24:22;11.30;99.90
7704;DHT22;3894;49.700;10.770;2023-10-09T06:27:06;11.40;99.90
7704;DHT22;3894;49.700;10.770;2023-10-09T06:29:32;11.40;99.90
7704;DHT22;3894;49.700;10.770;2023-10-09T06:32:05;11.50;99.90
7704;DHT22;3894;49.700;10.770;2023-10-09T06:34:49;11.50;99.90
7704;DHT22;3894;49.700;10.770;2023-10-09T06:37:23;11.60;99.90
7704;DHT22;3894;49.700;10.770;2023-10-09T06:39:52;11.60;99.90
7704;DHT22;3894;49.700;10.770;2023-10-09T06:42:24;11.70;99.90
7704;DHT22;3894;49.700;10.770;2023-10-09T06:45:11;11.80;99.90
7704;DHT22;3894;49.700;10.770;2023-10-09T06:47:51;11.80;99.90
7704;DHT22;3894;49.700;10.770;2023-10-09T06:50:35;11.90;99.90
7704;DHT22;3894;49.700;10.770;2023-10-09T06:53:20;11.90;99.90
7704;DHT22;3894;49.700;10.770;2023-10-09T06:55:46;11.90;99.90
7704;DHT22;3894;49.700;10.770;2023-10-09T06:58:18;11.80;99.90
7704;DHT22;3894;49.700;10.770;2023-10-09T07:00:55;11.90;99.90
7704;DHT22;3894;49.700;10.770;2023-10-09T07:03:28;12.00;99.90
7704;DHT22;3894;49.700;10.770;2023-10-09T07:06:11;12.10;99.90
7704;DHT22;3894;49.700;10.770;2023-10-09T07:08:55;12.20;99.90
7704;DHT22;3894;49.700;10.770;2023-10-09T07:11:33;12.40;99.90
7704;DHT22;3894;49.700;10.770;2023-10-09T07:14:09;12.40;99.90
7704;DHT22;3894;49.700;10.770;2023-10-09T07:16:57;12.40;99.90
7704;DHT22;3894;49.700;10.770;2023-10-09T07:19:42;12.30;99.90
7704;DHT22;3894;49.700;10.770;2023-10-09T07:22:09;12.40;99.90
7704;DHT22;3894;49.700;10.770;2023-10-09T07:24:51;12.70;99.90
7704;DHT22;3894;49.700;10.770;2023-10-09T07:27:23;12.90;99.90
7704;DHT22;3894;49.700;10.770;2023-10-09T07:30:08;12.90;99.90
7704;DHT22;3894;49.700;10.770;2023-10-09T07:32:58;12.90;99.90
7704;DHT22;3894;49.700;10.770;2023-10-09T07:35:39;12.90;99.90
7704;DHT22;3894;49.700;10.770;2023-10-09T07:38:09;13.00;99.90
7704;DHT22;3894;49.700;10.770;2023-10-09T07:40:35;13.00;99.90
7704;DHT22;3894;49.700;10.770;2023-10-09T07:43:20;13.00;99.90
7704;DHT22;3894;49.700;10.770;2023-10-09T07:45:52;13.00;99.90
7704;DHT22;3894;49.700;10.770;2023-10-09T07:48:23;13.00;99.90
7704;DHT22;3894;49.700;10.770;2023-10-09T07:50:51;13.00;99.90
7704;DHT22;3894;49.700;10.770;2023-10-09T07:53:23;13.10;99.90
7704;DHT22;3894;49.700;10.770;2023-10-09T07:55:55;13.10;99.90
7704;DHT22;3894;49.700;10.770;2023-10-09T07:58:27;13.20;99.90
7704;DHT22;3894;49.700;10.770;2023-10-09T08:00:55;13.30;99.90
7704;DHT22;3894;49.700;10.770;2023-10-09T08:03:47;13.30;99.90
7704;DHT22;3894;49.700;10.770;2023-10-09T08:06:25;13.30;99.90
7704;DHT22;3894;49.700;10.770;2023-10-09T08:09:10;13.40;99.90
7704;DHT22;3894;49.700;10.770;2023-10-09T08:11:42;13.50;99.90
7704;DHT22;3894;49.700;10.770;2023-10-09T08:14:12;13.50;99.90
7704;DHT22;3894;49.700;10.770;2023-10-09T08:16:56;13.50;99.90
7704;DHT22;3894;49.700;10.770;2023-10-09T08:19:45;13.50;99.90
7704;DHT22;3894;49.700;10.770;2023-10-09T08:22:30;13.40;99.90
7704;DHT22;3894;49.700;10.770;2023-10-09T08:24:56;13.50;99.90
7704;DHT22;3894;49.700;10.770;2023-10-09T08:27:23;13.50;99.90
7704;DHT22;3894;49.700;10.770;2023-10-09T08:30:02;13.60;99.90
7704;DHT22;3894;49.700;10.770;2023-10-09T08:32:46;13.60;99.90
7704;DHT22;3894;49.700;10.770;2023-10-09T08:35:50;13.80;99.90
7704;DHT22;3894;49.700;10.770;2023-10-09T08:38:17;13.80;99.90
7704;DHT22;3894;49.700;10.770;2023-10-09T08:40:49;13.80;99.90
7704;DHT22;3894;49.700;10.770;2023-10-09T08:43:21;13.80;99.90
7704;DHT22;3894;49.700;10.770;2023-10-09T08:45:49;13.90;99.90
7704;DHT22;3894;49.700;10.770;2023-10-09T08:48:17;13.90;99.90
7704;DHT22;3894;49.700;10.770;2023-10-09T08:50:48;13.90;99.90
7704;DHT22;3894;49.700;10.770;2023-10-09T08:53:20;14.00;99.90
7704;DHT22;3894;49.700;10.770;2023-10-09T08:55:46;14.00;99.90
7704;DHT22;3894;49.700;10.770;2023-10-09T08:58:14;14.10;99.90
7704;DHT22;3894;49.700;10.770;2023-10-09T09:00:51;14.10;99.90
7704;DHT22;3894;49.700;10.770;2023-10-09T09:03:18;14.10;99.90
7704;DHT22;3894;49.700;10.770;2023-10-09T09:06:01;14.20;99.90
7704;DHT22;3894;49.700;10.770;2023-10-09T09:08:28;14.20;99.90
7704;DHT22;3894;49.700;10.770;2023-10-09T09:11:07;14.20;99.90
7704;DHT22;3894;49.700;10.770;2023-10-09T09:14:03;14.20;99.90
7704;DHT22;3894;49.700;10.770;2023-10-09T09:16:35;14.20;99.90
7704;DHT22;3894;49.700;10.770;2023-10-09T09:19:06;14.20;99.90
7704;DHT22;3894;49.700;10.770;2023-10-09T09:21:42;14.20;99.90
7704;DHT22;3894;49.700;10.770;2023-10-09T09:24:10;14.20;99.90
7704;DHT22;3894;49.700;10.770;2023-10-09T09:26:50;14.30;99.90
7704;DHT22;3894;49.700;10.770;2023-10-09T09:29:45;14.30;99.90
7704;DHT22;3894;49.700;10.770;2023-10-09T09:32:30;14.40;99.90
7704;DHT22;3894;49.700;10.770;2023-10-09T09:35:01;14.40;99.90
7704;DHT22;3894;49.700;10.770;2023-10-09T09:37:30;14.40;99.90
7704;DHT22;3894;49.700;10.770;2023-10-09T09:39:58;14.40;99.90
7704;DHT22;3894;49.700;10.770;2023-10-09T09:42:27;14.40;99.90
7704;DHT22;3894;49.700;10.770;2023-10-09T09:44:53;14.30;99.90
7704;DHT22;3894;49.700;10.770;2023-10-09T09:47:21;14.30;99.90
7704;DHT22;3894;49.700;10.770;2023-10-09T09:49:56;14.30;99.90
7704;DHT22;3894;49.700;10.770;2023-10-09T09:52:37;14.40;99.90
7704;DHT22;3894;49.700;10.770;2023-10-09T09:55:10;14.40;99.90
7704;DHT22;3894;49.700;10.770;2023-10-09T09:57:48;14.50;99.90
7704;DHT22;3894;49.700;10.770;2023-10-09T10:00:21;14.50;99.90
7704;DHT22;3894;49.700;10.770;2023-10-09T10:03:14;14.60;99.90
7704;DHT22;3894;49.700;10.770;2023-10-09T10:05:44;14.60;99.90
7704;DHT22;3894;49.700;10.770;2023-10-09T10:08:20;14.60;99.90
7704;DHT22;3894;49.700;10.770;2023-10-09T10:10:47;14.70;99.90
7704;DHT22;3894;49.700;10.770;2023-10-09T10:13:15;14.70;99.90
7704;DHT22;3894;49.700;10.770;2023-10-09T10:18:22;14.70;99.90
7704;DHT22;3894;49.700;10.770;2023-10-09T10:21:12;14.70;99.90
7704;DHT22;3894;49.700;10.770;2023-10-09T10:23:44;14.70;99.90
7704;DHT22;3894;49.700;10.770;2023-10-09T10:26:22;14.80;99.90
7704;DHT22;3894;49.700;10.770;2023-10-09T10:32:01;15.00;99.90
7704;DHT22;3894;49.700;10.770;2023-10-09T10:37:21;15.20;99.90
7704;DHT22;3894;49.700;10.770;2023-10-09T10:39:54;15.20;99.90
7704;DHT22;3894;49.700;10.770;2023-10-09T10:42:25;15.20;99.90
7704;DHT22;3894;49.700;10.770;2023-10-09T10:45:03;15.20;99.90
7704;DHT22;3894;49.700;10.770;2023-10-09T10:47:49;15.20;99.90
7704;DHT22;3894;49.700;10.770;2023-10-09T10:50:18;15.30;99.90
7704;DHT22;3894;49.700;10.770;2023-10-09T10:53:11;15.50;99.90
7704;DHT22;3894;49.700;10.770;2023-10-09T10:55:55;15.60;99.90
7704;DHT22;3894;49.700;10.770;2023-10-09T10:58:22;15.60;99.90
7704;DHT22;3894;49.700;10.770;2023-10-09T11:00:56;15.70;99.90
7704;DHT22;3894;49.700;10.770;2023-10-09T11:03:22;15.80;99.90
7704;DHT22;3894;49.700;10.770;2023-10-09T11:06:07;15.80;99.90
7704;DHT22;3894;49.700;10.770;2023-10-09T11:08:43;15.80;99.90
7704;DHT22;3894;49.700;10.770;2023-10-09T11:11:19;15.80;99.90
7704;DHT22;3894;49.700;10.770;2023-10-09T11:13:45;15.80;99.90
7704;DHT22;3894;49.700;10.770;2023-10-09T11:16:24;15.90;99.90
7704;DHT22;3894;49.700;10.770;2023-10-09T11:19:09;15.90;99.90
7704;DHT22;3894;49.700;10.770;2023-10-09T11:21:55;15.90;99.90
7704;DHT22;3894;49.700;10.770;2023-10-09T11:24:33;15.90;99.90
7704;DHT22;3894;49.700;10.770;2023-10-09T11:27:01;16.00;99.90
7704;DHT22;3894;49.700;10.770;2023-10-09T11:29:34;16.10;99.90
7704;DHT22;3894;49.700;10.770;2023-10-09T11:32:14;16.10;99.90
7704;DHT22;3894;49.700;10.770;2023-10-09T11:34:47;16.20;99.90
7704;DHT22;3894;49.700;10.770;2023-10-09T11:37:21;16.30;99.90
7704;DHT22;3894;49.700;10.770;2023-10-09T11:39:58;16.30;99.90
7704;DHT22;3894;49.700;10.770;2023-10-09T11:42:27;16.30;99.90
7704;DHT22;3894;49.700;10.770;2023-10-09T11:45:18;16.30;99.90
7704;DHT22;3894;49.700;10.770;2023-10-09T11:47:51;16.40;99.90
7704;DHT22;3894;49.700;10.770;2023-10-09T11:53:43;16.40;99.90
7704;DHT22;3894;49.700;10.770;2023-10-09T11:56:09;16.40;99.90
7704;DHT22;3894;49.700;10.770;2023-10-09T11:58:40;16.30;99.90
7704;DHT22;3894;49.700;10.770;2023-10-09T12:01:12;16.30;99.90
7704;DHT22;3894;49.700;10.770;2023-10-09T12:03:51;16.30;99.90
7704;DHT22;3894;49.700;10.770;2023-10-09T12:06:20;16.30;99.90
7704;DHT22;3894;49.700;10.770;2023-10-09T12:08:48;16.30;99.90
7704;DHT22;3894;49.700;10.770;2023-10-09T12:11:14;16.40;99.90
7704;DHT22;3894;49.700;10.770;2023-10-09T12:13:50;16.50;99.90
7704;DHT22;3894;49.700;10.770;2023-10-09T12:16:21;16.50;99.90
7704;DHT22;3894;49.700;10.770;2023-10-09T12:18:47;16.60;99.90
7704;DHT22;3894;49.700;10.770;2023-10-09T12:21:19;16.80;99.90
7704;DHT22;3894;49.700;10.770;2023-10-09T12:23:45;16.90;99.90
7704;DHT22;3894;49.700;10.770;2023-10-09T12:26:13;17.00;99.90
7704;DHT22;3894;49.700;10.770;2023-10-09T12:28:43;17.10;99.90
7704;DHT22;3894;49.700;10.770;2023-10-09T12:31:16;17.20;99.90
7704;DHT22;3894;49.700;10.770;2023-10-09T12:33:45;17.20;99.90
7704;DHT22;3894;49.700;10.770;2023-10-09T12:36:15;17.20;99.90
7704;DHT22;3894;49.700;10.770;2023-10-09T12:38:46;17.30;99.90
7704;DHT22;3894;49.700;10.770;2023-10-09T12:41:16;17.40;99.90
7704;DHT22;3894;49.700;10.770;2023-10-09T12:43:55;17.40;99.90
7704;DHT22;3894;49.700;10.770;2023-10-09T12:46:22;17.40;99.90
7704;DHT22;3894;49.700;10.770;2023-10-09T12:48:51;17.50;99.90
7704;DHT22;3894;49.700;10.770;2023-10-09T12:51:20;17.50;99.90
7704;DHT22;3894;49.700;10.770;2023-10-09T12:53:51;17.50;99.90
7704;DHT22;3894;49.700;10.770;2023-10-09T12:56:23;17.50;99.90
7704;DHT22;3894;49.700;10.770;2023-10-09T12:59:00;17.50;99.90
7704;DHT22;3894;49.700;10.770;2023-10-09T13:01:27;17.50;99.90
7704;DHT22;3894;49.700;10.770;2023-10-09T13:03:58;17.50;99.90
7704;DHT22;3894;49.700;10.770;2023-10-09T13:06:25;17.50;99.90
7704;DHT22;3894;49.700;10.770;2023-10-09T13:08:51;17.60;99.90
7704;DHT22;3894;49.700;10.770;2023-10-09T13:11:17;17.60;99.90
7704;DHT22;3894;49.700;10.770;2023-10-09T13:13:45;17.70;99.90
7704;DHT22;3894;49.700;10.770;2023-10-09T13:16:25;17.70;99.90
7704;DHT22;3894;49.700;10.770;2023-10-09T13:18:52;17.70;99.90
7704;DHT22;3894;49.700;10.770;2023-10-09T13:21:26;17.80;99.90
7704;DHT22;3894;49.700;10.770;2023-10-09T13:23:52;17.90;99.90
7704;DHT22;3894;49.700;10.770;2023-10-09T13:26:21;17.90;99.90
7704;DHT22;3894;49.700;10.770;2023-10-09T13:28:53;17.90;99.90
7704;DHT22;3894;49.700;10.770;2023-10-09T13:31:20;18.00;99.90
7704;DHT22;3894;49.700;10.770;2023-10-09T13:33:51;18.00;99.90
7704;DHT22;3894;49.700;10.770;2023-10-09T13:36:21;18.00;99.90
7704;DHT22;3894;49.700;10.770;2023-10-09T13:38:55;18.00;99.90
7704;DHT22;3894;49.700;10.770;2023-10-09T13:41:21;18.00;99.90
7704;DHT22;3894;49.700;10.770;2023-10-09T13:43:47;18.00;99.90
7704;DHT22;3894;49.700;10.770;2023-10-09T13:46:13;18.00;99.90
7704;DHT22;3894;49.700;10.770;2023-10-09T13:48:43;18.00;99.90
7704;DHT22;3894;49.700;10.770;2023-10-09T13:51:11;18.00;99.90
7704;DHT22;3894;49.700;10.770;2023-10-09T13:53:43;18.00;99.90
7704;DHT22;3894;49.700;10.770;2023-10-09T13:56:17;18.10;99.90
7704;DHT22;3894;49.700;10.770;2023-10-09T13:58:45;18.10;99.90
7704;DHT22;3894;49.700;10.770;2023-10-09T14:01:11;18.10;99.90
7704;DHT22;3894;49.700;10.770;2023-10-09T14:03:36;18.20;99.90
7704;DHT22;3894;49.700;10.770;2023-10-09T14:06:05;18.30;99.90
7704;DHT22;3894;49.700;10.770;2023-10-09T14:08:38;18.20;99.90
7704;DHT22;3894;49.700;10.770;2023-10-09T14:11:09;18.20;99.90
7704;DHT22;3894;49.700;10.770;2023-10-09T14:13:42;18.20;99.90
7704;DHT22;3894;49.700;10.770;2023-10-09T14:16:08;18.20;99.90
7704;DHT22;3894;49.700;10.770;2023-10-09T14:18:55;18.20;99.90
7704;DHT22;3894;49.700;10.770;2023-10-09T14:21:32;18.20;99.90
7704;DHT22;3894;49.700;10.770;2023-10-09T14:23:58;18.20;99.90
7704;DHT22;3894;49.700;10.770;2023-10-09T14:26:28;18.20;99.90
7704;DHT22;3894;49.700;10.770;2023-10-09T14:28:55;18.20;99.90
7704;DHT22;3894;49.700;10.770;2023-10-09T14:31:23;18.10;99.90
7704;DHT22;3894;49.700;10.770;2023-10-09T14:33:58;18.20;99.90
7704;DHT22;3894;49.700;10.770;2023-10-09T14:36:24;18.20;99.90
7704;DHT22;3894;49.700;10.770;2023-10-09T14:38:59;18.10;99.90
7704;DHT22;3894;49.700;10.770;2023-10-09T14:41:25;18.10;99.90
7704;DHT22;3894;49.700;10.770;2023-10-09T14:43:52;18.10;99.90
7704;DHT22;3894;49.700;10.770;2023-10-09T14:46:19;18.10;99.90
7704;DHT22;3894;49.700;10.770;2023-10-09T14:48:54;18.10;99.90
7704;DHT22;3894;49.700;10.770;2023-10-09T14:51:21;18.00;99.90
7704;DHT22;3894;49.700;10.770;2023-10-09T14:53:54;18.00;99.90
7704;DHT22;3894;49.700;10.770;2023-10-09T14:56:23;17.90;99.90
7704;DHT22;3894;49.700;10.770;2023-10-09T14:58:58;17.90;99.90
7704;DHT22;3894;49.700;10.770;2023-10-09T15:01:25;17.90;99.90
7704;DHT22;3894;49.700;10.770;2023-10-09T15:03:54;17.80;99.90
7704;DHT22;3894;49.700;10.770;2023-10-09T15:06:28;17.80;99.90
7704;DHT22;3894;49.700;10.770;2023-10-09T15:08:55;17.80;99.90
7704;DHT22;3894;49.700;10.770;2023-10-09T15:11:25;17.70;99.90
7704;DHT22;3894;49.700;10.770;2023-10-09T15:13:55;17.70;99.90
7704;DHT22;3894;49.700;10.770;2023-10-09T15:16:21;17.70;99.90
7704;DHT22;3894;49.700;10.770;2023-10-09T15:18:49;17.60;99.90
7704;DHT22;3894;49.700;10.770;2023-10-09T15:21:19;17.70;99.90
7704;DHT22;3894;49.700;10.770;2023-10-09T15:23:51;17.60;99.90
7704;DHT22;3894;49.700;10.770;2023-10-09T15:26:18;17.60;99.90
7704;DHT22;3894;49.700;10.770;2023-10-09T15:28:43;17.50;99.90
7704;DHT22;3894;49.700;10.770;2023-10-09T15:31:09;17.50;99.90
7704;DHT22;3894;49.700;10.770;2023-10-09T15:33:38;17.50;99.90
7704;DHT22;3894;49.700;10.770;2023-10-09T15:36:15;17.40;99.90
7704;DHT22;3894;49.700;10.770;2023-10-09T15:38:43;17.40;99.90
7704;DHT22;3894;49.700;10.770;2023-10-09T15:41:09;17.40;99.90
7704;DHT22;3894;49.700;10.770;2023-10-09T15:43:35;17.40;99.90
7704;DHT22;3894;49.700;10.770;2023-10-09T15:46:01;17.50;99.90
7704;DHT22;3894;49.700;10.770;2023-10-09T15:48:27;17.40;99.90
7704;DHT22;3894;49.700;10.770;2023-10-09T15:50:52;17.40;99.90
7704;DHT22;3894;49.700;10.770;2023-10-09T15:53:18;17.30;99.90
7704;DHT22;3894;49.700;10.770;2023-10-09T15:55:44;17.30;99.90
7704;DHT22;3894;49.700;10.770;2023-10-09T15:58:10;17.30;99.90
7704;DHT22;3894;49.700;10.770;2023-10-09T16:00:36;17.20;99.90
7704;DHT22;3894;49.700;10.770;2023-10-09T16:03:04;17.20;99.90
7704;DHT22;3894;49.700;10.770;2023-10-09T16:05:30;17.10;99.90
7704;DHT22;3894;49.700;10.770;2023-10-09T16:08:01;17.10;99.90
7704;DHT22;3894;49.700;10.770;2023-10-09T16:10:29;17.10;99.90
7704;DHT22;3894;49.700;10.770;2023-10-09T16:12:56;17.00;99.90
7704;DHT22;3894;49.700;10.770;2023-10-09T16:15:23;17.00;99.90
7704;DHT22;3894;49.700;10.770;2023-10-09T16:17:50;16.90;99.90
7704;DHT22;3894;49.700;10.770;2023-10-09T16:20:25;16.90;99.90
7704;DHT22;3894;49.700;10.770;2023-10-09T16:22:51;16.90;99.90
7704;DHT22;3894;49.700;10.770;2023-10-09T16:25:17;16.80;99.90
7704;DHT22;3894;49.700;10.770;2023-10-09T16:27:46;16.80;99.90
7704;DHT22;3894;49.700;10.770;2023-10-09T16:30:17;16.70;99.90
7704;DHT22;3894;49.700;10.770;2023-10-09T16:32:49;16.80;99.90
7704;DHT22;3894;49.700;10.770;2023-10-09T16:35:19;16.70;99.90
7704;DHT22;3894;49.700;10.770;2023-10-09T16:37:48;16.70;99.90